Time;durP1;ratioP1;P1;durP2;ratioP2;P2;SDS_P1;SDS_P2;PMS_P1;PMS_P2;Temp;Humidity;BMP_temperature;BMP_pressure;BME280_temperature;BME280_humidity;BME280_pressure;Samples;Min_cycle;Max_cycle;Signal;HPM_P1;HPM_P2
2022/03/03 00:01:43;;;;;;;21.05;13.45;;;;;;;;;;5070529;28;20549;-77
2022/03/03 00:04:10;;;;;;;22.30;13.02;;;;;;;;;;5029822;28;22378;-77
2022/03/03 00:06:36;;;;;;;21.90;13.68;;;;;;;;;;4977447;28;20237;-77
2022/03/03 00:09:03;;;;;;;21.60;14.38;;;;;;;;;;4866702;29;20221;-78
2022/03/03 00:12:44;;;;;;;19.02;13.18;;;;;;;;;;5193051;27;20480;-78
2022/03/03 00:15:10;;;;;;;22.00;13.90;;;;;;;;;;5187294;27;20182;-78
2022/03/03 00:17:36;;;;;;;21.35;13.90;;;;;;;;;;5151584;27;20228;-78
2022/03/03 00:20:02;;;;;;;21.38;13.52;;;;;;;;;;5166462;27;20184;-76
2022/03/03 00:22:28;;;;;;;18.02;13.30;;;;;;;;;;5102275;28;20658;-79
2022/03/03 00:24:54;;;;;;;22.52;14.27;;;;;;;;;;5020541;28;20209;-78
2022/03/03 00:27:20;;;;;;;26.33;13.70;;;;;;;;;;4881332;29;20242;-77
2022/03/03 00:29:46;;;;;;;24.13;14.00;;;;;;;;;;4832083;29;20201;-77
2022/03/03 00:34:41;;;;;;;20.65;13.73;;;;;;;;;;5193891;27;20284;-77
2022/03/03 00:37:07;;;;;;;19.45;13.80;;;;;;;;;;5170332;27;20672;-79
2022/03/03 00:39:33;;;;;;;22.65;13.30;;;;;;;;;;5107499;28;20200;-77
2022/03/03 00:41:59;;;;;;;17.87;12.40;;;;;;;;;;5125697;27;20286;-77
2022/03/03 00:44:25;;;;;;;23.73;12.77;;;;;;;;;;5074109;28;20432;-77
2022/03/03 00:46:51;;;;;;;23.25;14.07;;;;;;;;;;5005117;28;20495;-79
2022/03/03 00:49:17;;;;;;;19.67;11.60;;;;;;;;;;4934177;28;20219;-77
2022/03/03 00:51:43;;;;;;;22.25;13.10;;;;;;;;;;4943568;28;20462;-78
2022/03/03 00:54:09;;;;;;;21.57;14.10;;;;;;;;;;4820317;29;20697;-78
2022/03/03 00:58:27;;;;;;;23.27;13.77;;;;;;;;;;5193399;27;20492;-77
2022/03/03 01:00:53;;;;;;;19.20;12.45;;;;;;;;;;5188466;27;20189;-77
2022/03/03 01:03:19;;;;;;;22.73;13.43;;;;;;;;;;5192628;27;20189;-76
2022/03/03 01:05:45;;;;;;;23.93;13.40;;;;;;;;;;5166107;27;20217;-78
2022/03/03 01:08:12;;;;;;;23.33;13.55;;;;;;;;;;5140027;27;20475;-78
2022/03/03 01:10:39;;;;;;;22.67;14.38;;;;;;;;;;5077974;28;20193;-78
2022/03/03 01:13:05;;;;;;;20.30;11.13;;;;;;;;;;5022258;28;20191;-78
2022/03/03 01:15:31;;;;;;;20.77;12.40;;;;;;;;;;4923311;28;20224;-78
2022/03/03 01:17:57;;;;;;;16.65;11.88;;;;;;;;;;4765664;29;20225;-77
2022/03/03 01:22:22;;;;;;;16.45;11.32;;;;;;;;;;5193744;27;20476;-77
2022/03/03 01:24:48;;;;;;;15.77;10.35;;;;;;;;;;5169131;27;20204;-77
2022/03/03 01:27:14;;;;;;;19.15;11.45;;;;;;;;;;5173893;27;20233;-78
2022/03/03 01:29:41;;;;;;;22.35;11.25;;;;;;;;;;5132073;27;20199;-76
2022/03/03 01:32:07;;;;;;;18.35;10.80;;;;;;;;;;5068228;28;20270;-78
2022/03/03 01:34:34;;;;;;;22.80;11.85;;;;;;;;;;5055378;28;20192;-76
2022/03/03 01:37:00;;;;;;;18.95;11.88;;;;;;;;;;5083392;28;20208;-77
2022/03/03 01:39:26;;;;;;;20.75;11.85;;;;;;;;;;5019957;28;20286;-78
2022/03/03 01:41:52;;;;;;;14.75;11.00;;;;;;;;;;4873491;29;20291;-78
2022/03/03 01:46:06;;;;;;;17.15;10.55;;;;;;;;;;5184865;27;20498;-76
2022/03/03 01:48:32;;;;;;;16.73;10.80;;;;;;;;;;5162868;27;20182;-76
2022/03/03 01:50:58;;;;;;;13.00;9.68;;;;;;;;;;5192817;27;20189;-78
2022/03/03 01:53:24;;;;;;;15.00;10.40;;;;;;;;;;5192415;27;20181;-77
2022/03/03 01:55:50;;;;;;;17.50;10.87;;;;;;;;;;5156450;27;20801;-77
2022/03/03 01:58:17;;;;;;;15.50;10.57;;;;;;;;;;5042729;28;20933;-78
2022/03/03 02:00:44;;;;;;;13.13;9.77;;;;;;;;;;4997771;28;20192;-79
2022/03/03 02:03:10;;;;;;;16.83;10.82;;;;;;;;;;4945000;28;20208;-78
2022/03/03 02:05:36;;;;;;;14.85;10.68;;;;;;;;;;4805753;29;20609;-78
2022/03/03 02:10:42;;;;;;;19.17;13.00;;;;;;;;;;5193651;27;20474;-78
2022/03/03 02:13:08;;;;;;;18.45;10.70;;;;;;;;;;5169119;27;20196;-77
2022/03/03 02:15:34;;;;;;;17.30;11.55;;;;;;;;;;5168616;27;20214;-77
2022/03/03 02:18:00;;;;;;;15.50;9.68;;;;;;;;;;5166330;27;20286;-78
2022/03/03 02:20:27;;;;;;;16.33;10.52;;;;;;;;;;5104523;28;20202;-78
2022/03/03 02:22:54;;;;;;;17.25;10.43;;;;;;;;;;5049069;28;20195;-77
2022/03/03 02:25:20;;;;;;;14.30;10.95;;;;;;;;;;5012232;28;22534;-77
2022/03/03 02:27:46;;;;;;;26.77;12.00;;;;;;;;;;4923213;28;20197;-80
2022/03/03 02:32:50;;;;;;;19.27;11.35;;;;;;;;;;5193831;27;20485;-77
2022/03/03 02:35:16;;;;;;;15.38;10.05;;;;;;;;;;5187084;27;20189;-77
2022/03/03 02:37:43;;;;;;;16.27;11.00;;;;;;;;;;5172318;27;20235;-77
2022/03/03 02:40:10;;;;;;;18.35;11.57;;;;;;;;;;5157901;27;20190;-78
2022/03/03 02:42:36;;;;;;;22.45;11.15;;;;;;;;;;5160118;27;20273;-77
2022/03/03 02:45:03;;;;;;;15.23;10.63;;;;;;;;;;5121112;28;20278;-77
2022/03/03 02:47:29;;;;;;;14.00;9.50;;;;;;;;;;5045562;28;20227;-78
2022/03/03 02:49:56;;;;;;;19.50;11.93;;;;;;;;;;4890896;28;20191;-76
2022/03/03 02:52:22;;;;;;;21.27;12.55;;;;;;;;;;4769787;29;20653;-77
2022/03/03 02:56:01;;;;;;;18.70;9.77;;;;;;;;;;5186276;27;20502;-76
2022/03/03 02:58:27;;;;;;;18.00;10.13;;;;;;;;;;5188530;27;20185;-78
2022/03/03 03:00:53;;;;;;;16.23;9.52;;;;;;;;;;5188152;27;20198;-77
2022/03/03 03:03:19;;;;;;;16.58;10.98;;;;;;;;;;5152719;27;20659;-76
2022/03/03 03:05:46;;;;;;;15.27;10.82;;;;;;;;;;5125424;27;20220;-78
2022/03/03 03:08:12;;;;;;;17.95;11.82;;;;;;;;;;5107864;28;20237;-76
2022/03/03 03:10:39;;;;;;;16.92;10.18;;;;;;;;;;5086991;28;20194;-77
2022/03/03 03:13:05;;;;;;;23.08;11.10;;;;;;;;;;4931320;28;20202;-77
2022/03/03 03:15:31;;;;;;;18.95;10.50;;;;;;;;;;4865193;28;20227;-77
2022/03/03 03:20:29;;;;;;;16.88;9.88;;;;;;;;;;5193764;27;20356;-77
2022/03/03 03:22:55;;;;;;;16.73;10.98;;;;;;;;;;5172331;27;20190;-79
2022/03/03 03:25:21;;;;;;;16.25;10.10;;;;;;;;;;5149737;27;20722;-78
2022/03/03 03:27:48;;;;;;;15.90;11.30;;;;;;;;;;5125324;28;20192;-77
2022/03/03 03:30:14;;;;;;;17.85;10.80;;;;;;;;;;5087314;28;20589;-77
2022/03/03 03:32:40;;;;;;;17.63;11.33;;;;;;;;;;5014345;28;20737;-76
2022/03/03 03:35:06;;;;;;;21.70;11.40;;;;;;;;;;4941040;28;20425;-77
2022/03/03 03:37:32;;;;;;;16.05;9.98;;;;;;;;;;4887716;29;20216;-77
2022/03/03 03:39:58;;;;;;;16.23;10.90;;;;;;;;;;4761473;29;20236;-79
2022/03/03 03:43:41;;;;;;;20.52;10.30;;;;;;;;;;5193495;27;20474;-78
2022/03/03 03:46:07;;;;;;;15.55;10.23;;;;;;;;;;5179176;27;20209;-77
2022/03/03 03:48:33;;;;;;;18.10;9.18;;;;;;;;;;5151563;27;20232;-76
2022/03/03 03:51:02;;;;;;;20.70;10.00;;;;;;;;;;5162516;27;20186;-77
2022/03/03 03:53:28;;;;;;;14.63;9.45;;;;;;;;;;5041518;28;20203;-76
2022/03/03 03:55:54;;;;;;;15.07;10.57;;;;;;;;;;5050349;28;20209;-77
2022/03/03 03:58:20;;;;;;;13.60;10.25;;;;;;;;;;5047648;28;20738;-78
2022/03/03 04:00:46;;;;;;;16.23;10.20;;;;;;;;;;4894808;28;20301;-77
2022/03/03 04:05:51;;;;;;;14.43;9.93;;;;;;;;;;5187621;27;20526;-77
2022/03/03 04:08:18;;;;;;;13.37;9.50;;;;;;;;;;5171835;27;20197;-76
2022/03/03 04:10:44;;;;;;;14.07;9.73;;;;;;;;;;5173188;27;20992;-75
2022/03/03 04:13:10;;;;;;;18.05;11.00;;;;;;;;;;5167329;27;20638;-76
2022/03/03 04:15:36;;;;;;;15.73;9.90;;;;;;;;;;5121088;27;20287;-76
2022/03/03 04:18:02;;;;;;;14.30;9.77;;;;;;;;;;5059605;28;20468;-77
2022/03/03 04:20:28;;;;;;;17.02;10.15;;;;;;;;;;4960966;28;20487;-77
2022/03/03 04:22:54;;;;;;;13.45;9.70;;;;;;;;;;4906654;28;20223;-76
2022/03/03 04:25:21;;;;;;;19.13;11.27;;;;;;;;;;4774834;29;20672;-77
2022/03/03 04:29:20;;;;;;;16.05;10.07;;;;;;;;;;5193699;27;20529;-76
2022/03/03 04:31:46;;;;;;;20.93;12.07;;;;;;;;;;5188554;27;20189;-77
2022/03/03 04:34:12;;;;;;;18.00;11.53;;;;;;;;;;5192943;27;20817;-77
2022/03/03 04:36:38;;;;;;;14.80;9.73;;;;;;;;;;5158981;27;20482;-77
2022/03/03 04:39:04;;;;;;;17.52;10.70;;;;;;;;;;5097528;28;20911;-76
2022/03/03 04:41:30;;;;;;;15.52;10.30;;;;;;;;;;5042249;28;20279;-75
2022/03/03 04:43:56;;;;;;;16.33;11.13;;;;;;;;;;5009919;28;20206;-78
2022/03/03 04:46:22;;;;;;;15.67;9.50;;;;;;;;;;4926097;28;20467;-77
2022/03/03 04:48:48;;;;;;;13.98;9.13;;;;;;;;;;4872311;29;20498;-76
2022/03/03 04:53:17;;;;;;;15.27;10.15;;;;;;;;;;5194331;27;20476;-77
2022/03/03 04:55:43;;;;;;;13.95;9.88;;;;;;;;;;5183535;27;20209;-77
2022/03/03 04:58:09;;;;;;;16.17;10.75;;;;;;;;;;5157151;27;20186;-78
2022/03/03 05:00:35;;;;;;;15.40;9.55;;;;;;;;;;5141477;27;20268;-78
2022/03/03 05:03:01;;;;;;;23.58;10.82;;;;;;;;;;5086907;28;20197;-78
2022/03/03 05:05:27;;;;;;;17.38;10.93;;;;;;;;;;5022748;28;20670;-77
2022/03/03 05:07:53;;;;;;;12.30;8.90;;;;;;;;;;4944735;28;20213;-78
2022/03/03 05:10:19;;;;;;;15.18;9.57;;;;;;;;;;4825982;29;20216;-78
2022/03/03 05:15:24;;;;;;;15.43;9.60;;;;;;;;;;5191354;27;20490;-76
2022/03/03 05:17:50;;;;;;;14.35;10.02;;;;;;;;;;5188942;27;20177;-77
2022/03/03 05:20:17;;;;;;;18.23;10.32;;;;;;;;;;5173729;27;20212;-77
2022/03/03 05:22:43;;;;;;;16.08;10.25;;;;;;;;;;5173199;27;20533;-78
2022/03/03 05:25:10;;;;;;;14.43;10.02;;;;;;;;;;5107178;28;20247;-78
2022/03/03 05:27:36;;;;;;;17.27;11.55;;;;;;;;;;5029122;28;20189;-78
2022/03/03 05:30:02;;;;;;;16.92;11.02;;;;;;;;;;4918413;28;20221;-78
2022/03/03 05:32:29;;;;;;;14.88;9.93;;;;;;;;;;4911283;29;20636;-78
2022/03/03 05:34:55;;;;;;;18.20;11.32;;;;;;;;;;4869638;29;20233;-76
2022/03/03 05:39:58;;;;;;;20.67;12.10;;;;;;;;;;5194282;27;20311;-77
2022/03/03 05:42:24;;;;;;;20.98;13.45;;;;;;;;;;5186363;27;20181;-75
2022/03/03 05:44:51;;;;;;;18.80;12.35;;;;;;;;;;5193385;27;20580;-77
2022/03/03 05:47:17;;;;;;;19.40;12.23;;;;;;;;;;5173557;27;20567;-79
2022/03/03 05:49:50;;;;;;;20.20;13.45;;;;;;;;;;5117432;27;20556;-77
2022/03/03 05:52:16;;;;;;;25.42;14.25;;;;;;;;;;5023720;28;20191;-76
2022/03/03 05:54:42;;;;;;;15.73;11.57;;;;;;;;;;4946553;28;20274;-77
2022/03/03 05:57:16;;;;;;;20.83;12.93;;;;;;;;;;4868584;28;20463;-77
2022/03/03 05:59:43;;;;;;;20.42;13.07;;;;;;;;;;4769958;29;20258;-78
2022/03/03 06:04:13;;;;;;;24.80;14.25;;;;;;;;;;5193835;27;20470;-78
2022/03/03 06:06:44;;;;;;;20.65;14.40;;;;;;;;;;5174718;27;20236;-78
2022/03/03 06:09:17;;;;;;;23.90;14.00;;;;;;;;;;5171210;27;20188;-78
2022/03/03 06:11:47;;;;;;;30.73;13.50;;;;;;;;;;5102656;28;20208;-78
2022/03/03 06:14:15;;;;;;;26.67;14.60;;;;;;;;;;5001763;28;20202;-75
2022/03/03 06:16:42;;;;;;;26.90;13.68;;;;;;;;;;4986868;28;20263;-76
2022/03/03 06:19:11;;;;;;;23.42;13.88;;;;;;;;;;4965129;28;20203;-77
2022/03/03 06:21:37;;;;;;;26.23;14.32;;;;;;;;;;4845958;29;20210;-76
2022/03/03 06:24:05;;;;;;;23.00;13.80;;;;;;;;;;4755081;29;20232;-77
2022/03/03 06:28:37;;;;;;;18.95;12.70;;;;;;;;;;5192778;27;20322;-77
2022/03/03 06:31:05;;;;;;;18.13;12.05;;;;;;;;;;5168992;27;20546;-77
2022/03/03 06:33:31;;;;;;;22.75;13.57;;;;;;;;;;5172675;27;20229;-77
2022/03/03 06:35:57;;;;;;;23.95;13.85;;;;;;;;;;5181195;27;20549;-77
2022/03/03 06:38:23;;;;;;;20.85;12.50;;;;;;;;;;5136711;27;20539;-78
2022/03/03 06:40:49;;;;;;;18.98;12.85;;;;;;;;;;5051202;28;20223;-77
2022/03/03 06:43:16;;;;;;;25.52;14.02;;;;;;;;;;4961834;28;20200;-76
2022/03/03 06:45:42;;;;;;;27.13;13.35;;;;;;;;;;4890815;29;20303;-78
2022/03/03 06:48:09;;;;;;;16.60;11.73;;;;;;;;;;4779039;29;20234;-79
2022/03/03 06:52:50;;;;;;;23.80;12.00;;;;;;;;;;5193052;27;20674;-78
2022/03/03 06:55:19;;;;;;;19.55;11.95;;;;;;;;;;5167446;27;20196;-77
2022/03/03 06:57:47;;;;;;;23.98;13.05;;;;;;;;;;5148933;27;20190;-78
2022/03/03 07:00:13;;;;;;;20.83;12.30;;;;;;;;;;5148611;27;20191;-76
2022/03/03 07:02:40;;;;;;;20.70;12.73;;;;;;;;;;5064382;28;20200;-78
2022/03/03 07:05:06;;;;;;;23.77;11.65;;;;;;;;;;5025605;28;20186;-78
2022/03/03 07:07:33;;;;;;;17.77;11.82;;;;;;;;;;5029182;28;20217;-79
2022/03/03 07:09:59;;;;;;;20.35;12.85;;;;;;;;;;4897775;28;20274;-77
2022/03/03 07:12:27;;;;;;;26.30;13.70;;;;;;;;;;4872545;29;20815;-77
2022/03/03 07:17:37;;;;;;;18.98;13.65;;;;;;;;;;5172483;27;20348;-78
2022/03/03 07:20:05;;;;;;;22.10;14.18;;;;;;;;;;5163651;27;20186;-77
2022/03/03 07:22:37;;;;;;;25.83;13.80;;;;;;;;;;5175255;27;20284;-77
2022/03/03 07:25:03;;;;;;;19.58;12.98;;;;;;;;;;5139232;27;20190;-77
2022/03/03 07:27:29;;;;;;;22.08;12.80;;;;;;;;;;5096079;28;20543;-78
2022/03/03 07:30:00;;;;;;;21.10;12.68;;;;;;;;;;5058849;28;20283;-79
2022/03/03 07:32:46;;;;;;;18.65;12.70;;;;;;;;;;5082862;28;20625;-75
2022/03/03 07:35:14;;;;;;;18.52;14.13;;;;;;;;;;4950519;28;20193;-76
2022/03/03 07:37:48;;;;;;;20.98;12.02;;;;;;;;;;4924550;28;20261;-76
2022/03/03 07:42:55;;;;;;;19.65;12.43;;;;;;;;;;5192914;27;20832;-78
2022/03/03 07:45:21;;;;;;;19.77;12.40;;;;;;;;;;5186059;27;20246;-79
2022/03/03 07:47:50;;;;;;;22.23;12.60;;;;;;;;;;5171167;27;20273;-77
2022/03/03 07:50:17;;;;;;;18.73;12.00;;;;;;;;;;5170384;27;20186;-77
2022/03/03 07:52:44;;;;;;;21.60;12.30;;;;;;;;;;5154346;27;20534;-78
2022/03/03 07:55:10;;;;;;;20.25;13.35;;;;;;;;;;5147450;27;20273;-77
2022/03/03 07:57:39;;;;;;;20.30;13.00;;;;;;;;;;5129884;27;20187;-77
2022/03/03 08:00:07;;;;;;;22.20;13.35;;;;;;;;;;5105814;28;20241;-77
2022/03/03 08:02:34;;;;;;;18.83;11.75;;;;;;;;;;5063234;28;20229;-77
2022/03/03 08:07:55;;;;;;;18.38;12.52;;;;;;;;;;5193320;27;20485;-76
2022/03/03 08:10:21;;;;;;;23.85;12.77;;;;;;;;;;5151178;27;20276;-75
2022/03/03 08:12:53;;;;;;;16.75;11.68;;;;;;;;;;5192335;27;20565;-77
2022/03/03 08:15:19;;;;;;;18.98;12.75;;;;;;;;;;5168862;27;20182;-77
2022/03/03 08:17:48;;;;;;;17.83;10.95;;;;;;;;;;5111199;28;20217;-78
2022/03/03 08:20:14;;;;;;;20.98;12.05;;;;;;;;;;5137696;27;20243;-76
2022/03/03 08:22:40;;;;;;;19.08;11.80;;;;;;;;;;5162628;27;20192;-77
2022/03/03 08:25:08;;;;;;;17.75;12.40;;;;;;;;;;5123860;27;20207;-76
2022/03/03 08:27:34;;;;;;;20.85;11.60;;;;;;;;;;5055541;28;20207;-76
2022/03/03 08:33:00;;;;;;;20.27;12.50;;;;;;;;;;5192893;27;20502;-78
2022/03/03 08:35:27;;;;;;;18.55;12.55;;;;;;;;;;5115667;27;20194;-78
2022/03/03 08:37:53;;;;;;;20.50;12.02;;;;;;;;;;5152208;27;20246;-77
2022/03/03 08:40:21;;;;;;;20.45;13.45;;;;;;;;;;5170412;27;20184;-77
2022/03/03 08:42:56;;;;;;;17.65;11.95;;;;;;;;;;5131805;27;20643;-77
2022/03/03 08:45:23;;;;;;;18.20;13.40;;;;;;;;;;5081871;28;20210;-77
2022/03/03 08:47:57;;;;;;;19.65;12.80;;;;;;;;;;5064349;28;20187;-78
2022/03/03 08:50:27;;;;;;;21.88;12.30;;;;;;;;;;4928852;28;20198;-79
2022/03/03 08:52:53;;;;;;;32.00;12.65;;;;;;;;;;4867585;29;20202;-77
2022/03/03 08:57:51;;;;;;;20.48;14.20;;;;;;;;;;5192852;27;20294;-76
2022/03/03 09:00:17;;;;;;;17.27;11.82;;;;;;;;;;5168368;27;20590;-76
2022/03/03 09:02:43;;;;;;;20.95;12.60;;;;;;;;;;5192175;27;20184;-78
2022/03/03 09:05:10;;;;;;;20.75;12.70;;;;;;;;;;5177895;27;20197;-78
2022/03/03 09:07:37;;;;;;;22.10;13.10;;;;;;;;;;5116534;27;20220;-76
2022/03/03 09:10:03;;;;;;;18.08;12.27;;;;;;;;;;5109432;28;20198;-78
2022/03/03 09:12:29;;;;;;;18.25;12.15;;;;;;;;;;5124706;28;20608;-79
2022/03/03 09:14:55;;;;;;;20.60;12.90;;;;;;;;;;5045971;28;20310;-77
2022/03/03 09:17:21;;;;;;;20.38;12.48;;;;;;;;;;5038649;28;20510;-77
2022/03/03 09:22:34;;;;;;;18.73;13.10;;;;;;;;;;5192974;27;20486;-77
2022/03/03 09:25:00;;;;;;;18.65;12.68;;;;;;;;;;5187447;27;20599;-77
2022/03/03 09:27:26;;;;;;;20.17;13.30;;;;;;;;;;5172152;27;20269;-76
2022/03/03 09:29:52;;;;;;;21.73;12.10;;;;;;;;;;5170585;27;20182;-79
2022/03/03 09:32:18;;;;;;;15.63;11.50;;;;;;;;;;5128546;27;20583;-79
2022/03/03 09:34:45;;;;;;;19.55;12.02;;;;;;;;;;5093667;28;20420;-77
2022/03/03 09:37:11;;;;;;;16.77;12.83;;;;;;;;;;5066871;28;20264;-78
2022/03/03 09:39:37;;;;;;;16.57;12.90;;;;;;;;;;5056458;28;20435;-75
2022/03/03 09:42:03;;;;;;;16.80;12.23;;;;;;;;;;5026945;28;20495;-76
2022/03/03 09:47:00;;;;;;;17.60;13.23;;;;;;;;;;5176370;27;20502;-80
2022/03/03 09:49:26;;;;;;;15.60;11.60;;;;;;;;;;5187434;27;20418;-76
2022/03/03 09:51:51;;;;;;;15.87;12.93;;;;;;;;;;5191828;27;20441;-77
2022/03/03 09:54:18;;;;;;;17.23;12.70;;;;;;;;;;5191346;27;20391;-76
2022/03/03 09:56:45;;;;;;;18.07;12.53;;;;;;;;;;5126106;27;20468;-76
2022/03/03 09:59:12;;;;;;;18.63;13.07;;;;;;;;;;5035018;28;20415;-78
2022/03/03 10:01:37;;;;;;;13.60;11.97;;;;;;;;;;5005698;28;20458;-77
2022/03/03 10:04:16;;;;;;;20.17;13.47;;;;;;;;;;5039033;28;20473;-79
2022/03/03 10:06:43;;;;;;;18.53;13.50;;;;;;;;;;5055562;28;20536;-74
2022/03/03 10:09:09;;;;;;;16.30;13.10;;;;;;;;;;4994770;28;20413;-76
2022/03/03 10:12:42;;;;;;;19.27;13.90;;;;;;;;;;5151061;27;20499;-77
2022/03/03 10:15:12;;;;;;;17.30;14.80;;;;;;;;;;5145832;27;20929;-78
2022/03/03 10:17:38;;;;;;;17.87;13.60;;;;;;;;;;5126066;28;20398;-78
2022/03/03 10:20:07;;;;;;;22.97;14.30;;;;;;;;;;5106001;28;20437;-77
2022/03/03 10:22:39;;;;;;;16.47;13.60;;;;;;;;;;5080799;28;20765;-77
2022/03/03 10:25:06;;;;;;;16.60;13.57;;;;;;;;;;5102091;28;20399;-79
2022/03/03 10:27:33;;;;;;;18.13;12.93;;;;;;;;;;5124843;28;20426;-78
2022/03/03 10:30:01;;;;;;;20.20;12.93;;;;;;;;;;5098646;28;20918;-76
2022/03/03 10:32:27;;;;;;;17.17;12.77;;;;;;;;;;4931057;28;20518;-78
2022/03/03 10:38:08;;;;;;;16.97;14.90;;;;;;;;;;5192744;27;20491;-79
2022/03/03 10:40:38;;;;;;;17.70;14.17;;;;;;;;;;5187658;27;20417;-79
2022/03/03 10:43:04;;;;;;;16.50;14.00;;;;;;;;;;5192092;27;20417;-77
2022/03/03 10:45:32;;;;;;;17.03;13.70;;;;;;;;;;5187709;27;20442;-76
2022/03/03 10:48:03;;;;;;;18.23;14.83;;;;;;;;;;5149210;27;20421;-75
2022/03/03 10:50:48;;;;;;;20.47;13.80;;;;;;;;;;5084706;28;20513;-77
2022/03/03 10:53:17;;;;;;;20.03;13.60;;;;;;;;;;4999424;28;20408;-76
2022/03/03 10:55:59;;;;;;;16.30;13.83;;;;;;;;;;4873763;28;20460;-78
2022/03/03 11:01:03;;;;;;;18.90;14.70;;;;;;;;;;5189920;27;20485;-77
2022/03/03 11:03:29;;;;;;;20.20;15.23;;;;;;;;;;5168577;27;20430;-79
2022/03/03 11:05:56;;;;;;;19.50;14.73;;;;;;;;;;5184838;27;20453;-78
2022/03/03 11:08:21;;;;;;;17.03;14.80;;;;;;;;;;5170089;27;20430;-75
2022/03/03 11:10:49;;;;;;;17.03;14.67;;;;;;;;;;5161556;27;20752;-77
2022/03/03 11:13:15;;;;;;;18.93;14.37;;;;;;;;;;5163773;27;20509;-76
2022/03/03 11:15:43;;;;;;;15.73;13.70;;;;;;;;;;5077003;27;20510;-78
2022/03/03 11:18:09;;;;;;;19.00;14.00;;;;;;;;;;5038259;28;20451;-75
2022/03/03 11:20:35;;;;;;;15.60;13.83;;;;;;;;;;4850459;28;20574;-77
2022/03/03 11:25:31;;;;;;;18.10;14.83;;;;;;;;;;5190101;27;20770;-77
2022/03/03 11:28:15;;;;;;;16.00;13.43;;;;;;;;;;5187986;27;20441;-78
2022/03/03 11:30:43;;;;;;;15.47;13.83;;;;;;;;;;5168776;27;20458;-76
2022/03/03 11:33:18;;;;;;;15.70;13.70;;;;;;;;;;5170412;27;20510;-78
2022/03/03 11:35:53;;;;;;;15.20;12.67;;;;;;;;;;5123783;27;20440;-76
2022/03/03 11:38:19;;;;;;;17.90;13.20;;;;;;;;;;5081173;28;20435;-77
2022/03/03 11:40:56;;;;;;;16.40;14.27;;;;;;;;;;5083213;28;20505;-75
2022/03/03 11:43:23;;;;;;;15.70;13.07;;;;;;;;;;4994435;28;20504;-76
2022/03/03 11:45:53;;;;;;;17.17;13.67;;;;;;;;;;4967184;28;20929;-76
2022/03/03 11:50:17;;;;;;;19.83;14.23;;;;;;;;;;5192913;27;20481;-76
2022/03/03 11:53:03;;;;;;;15.10;12.80;;;;;;;;;;5169463;27;20778;-75
2022/03/03 11:55:38;;;;;;;17.67;13.70;;;;;;;;;;5116678;27;20933;-77
2022/03/03 11:58:06;;;;;;;16.10;14.07;;;;;;;;;;5084053;28;20426;-75
2022/03/03 12:00:33;;;;;;;16.23;13.27;;;;;;;;;;5031375;28;20444;-75
2022/03/03 12:03:04;;;;;;;15.23;12.60;;;;;;;;;;5036256;28;20428;-77
2022/03/03 12:05:31;;;;;;;17.13;13.40;;;;;;;;;;4954940;28;20896;-77
2022/03/03 12:07:57;;;;;;;13.27;11.53;;;;;;;;;;4894547;29;20705;-76
2022/03/03 12:10:24;;;;;;;15.30;12.30;;;;;;;;;;4866915;29;20420;-76
2022/03/03 12:14:26;;;;;;;16.53;13.10;;;;;;;;;;5193145;27;20488;-75
2022/03/03 12:16:52;;;;;;;14.03;12.50;;;;;;;;;;5154179;27;20454;-75
2022/03/03 12:19:18;;;;;;;13.73;12.37;;;;;;;;;;5170976;27;20406;-77
2022/03/03 12:21:45;;;;;;;13.33;11.63;;;;;;;;;;5170674;27;20777;-76
2022/03/03 12:24:14;;;;;;;11.93;10.73;;;;;;;;;;5152374;27;20877;-77
2022/03/03 12:26:55;;;;;;;16.23;12.07;;;;;;;;;;5131841;27;20456;-76
2022/03/03 12:29:49;;;;;;;12.73;11.33;;;;;;;;;;5097676;28;20797;-79
2022/03/03 12:32:27;;;;;;;14.40;11.40;;;;;;;;;;4908293;28;20498;-76
2022/03/03 12:34:53;;;;;;;13.13;11.80;;;;;;;;;;4805920;29;20825;-76
2022/03/03 12:38:18;;;;;;;11.97;10.77;;;;;;;;;;5193053;27;20488;-78
2022/03/03 12:40:45;;;;;;;16.57;12.30;;;;;;;;;;5187476;27;20504;-78
2022/03/03 12:43:12;;;;;;;13.60;11.53;;;;;;;;;;5191906;27;20457;-78
2022/03/03 12:45:39;;;;;;;14.37;11.60;;;;;;;;;;5166623;27;20798;-77
2022/03/03 12:48:06;;;;;;;14.23;12.37;;;;;;;;;;5152928;27;20868;-77
2022/03/03 12:50:33;;;;;;;14.17;11.07;;;;;;;;;;5107530;28;20414;-79
2022/03/03 12:53:05;;;;;;;12.40;11.20;;;;;;;;;;5071662;28;20768;-77
2022/03/03 12:55:43;;;;;;;11.77;10.47;;;;;;;;;;5039132;28;20448;-78
2022/03/03 12:58:09;;;;;;;10.83;9.73;;;;;;;;;;4925276;28;20490;-76
2022/03/03 13:02:30;;;;;;;12.67;11.37;;;;;;;;;;5192902;27;20488;-78
2022/03/03 13:04:56;;;;;;;10.90;9.80;;;;;;;;;;5168101;27;20789;-77
2022/03/03 13:07:23;;;;;;;9.73;8.83;;;;;;;;;;5135668;27;20461;-77
2022/03/03 13:09:52;;;;;;;11.43;10.27;;;;;;;;;;5160398;27;20821;-76
2022/03/03 13:12:18;;;;;;;10.77;9.63;;;;;;;;;;5140372;27;20437;-78
2022/03/03 13:14:54;;;;;;;9.60;8.80;;;;;;;;;;5051880;28;20909;-79
2022/03/03 13:17:20;;;;;;;10.40;9.27;;;;;;;;;;4941217;28;20456;-78
2022/03/03 13:19:50;;;;;;;10.30;9.20;;;;;;;;;;4865415;29;20493;-77
2022/03/03 13:22:16;;;;;;;12.50;9.77;;;;;;;;;;4696918;29;20909;-78
2022/03/03 13:26:31;;;;;;;14.03;10.23;;;;;;;;;;5181257;27;20497;-75
2022/03/03 13:29:03;;;;;;;10.47;8.90;;;;;;;;;;5146234;27;20428;-77
2022/03/03 13:31:34;;;;;;;11.93;9.77;;;;;;;;;;5148237;27;20421;-77
2022/03/03 13:34:03;;;;;;;10.13;9.23;;;;;;;;;;5087226;28;20449;-79
2022/03/03 13:36:42;;;;;;;9.73;8.73;;;;;;;;;;5083225;28;20877;-77
2022/03/03 13:39:33;;;;;;;14.17;9.53;;;;;;;;;;5003773;28;20439;-75
2022/03/03 13:42:00;;;;;;;14.77;11.20;;;;;;;;;;4969792;28;20497;-75
2022/03/03 13:44:26;;;;;;;10.47;9.37;;;;;;;;;;4934374;29;21056;-77
2022/03/03 13:47:00;;;;;;;14.33;10.73;;;;;;;;;;4897324;29;20542;-79
2022/03/03 13:51:26;;;;;;;10.47;9.37;;;;;;;;;;5192676;27;20469;-78
2022/03/03 13:53:58;;;;;;;11.53;9.90;;;;;;;;;;5187841;27;20418;-77
2022/03/03 13:56:28;;;;;;;11.07;9.90;;;;;;;;;;5181201;27;20436;-75
2022/03/03 13:59:10;;;;;;;10.80;8.50;;;;;;;;;;5165075;27;20907;-77
2022/03/03 14:01:40;;;;;;;12.07;10.10;;;;;;;;;;5102059;28;20725;-77
2022/03/03 14:04:13;;;;;;;10.10;9.10;;;;;;;;;;5024623;28;20437;-78
2022/03/03 14:06:43;;;;;;;9.70;8.57;;;;;;;;;;4984867;28;20939;-75
2022/03/03 14:09:10;;;;;;;10.73;9.37;;;;;;;;;;4979882;28;20494;-77
2022/03/03 14:11:36;;;;;;;10.00;9.00;;;;;;;;;;4971856;28;20457;-77
2022/03/03 14:16:07;;;;;;;11.60;9.40;;;;;;;;;;5184412;27;20497;-77
2022/03/03 14:18:34;;;;;;;12.70;9.60;;;;;;;;;;5187841;27;20430;-77
2022/03/03 14:21:00;;;;;;;9.40;8.50;;;;;;;;;;5172374;27;20506;-75
2022/03/03 14:23:27;;;;;;;9.37;8.47;;;;;;;;;;5189264;27;20780;-78
2022/03/03 14:25:53;;;;;;;10.53;9.43;;;;;;;;;;5125692;28;20517;-78
2022/03/03 14:28:20;;;;;;;10.20;9.20;;;;;;;;;;5133070;27;20477;-78
2022/03/03 14:30:46;;;;;;;10.40;8.77;;;;;;;;;;5076240;28;20437;-76
2022/03/03 14:33:12;;;;;;;10.53;9.43;;;;;;;;;;5060077;28;20419;-79
2022/03/03 14:35:38;;;;;;;9.80;8.50;;;;;;;;;;4991817;28;20514;-78
2022/03/03 14:40:34;;;;;;;9.53;8.53;;;;;;;;;;5193042;27;20651;-77
2022/03/03 14:43:00;;;;;;;14.40;9.10;;;;;;;;;;5187590;27;20448;-74
2022/03/03 14:45:26;;;;;;;10.73;9.30;;;;;;;;;;5189320;27;20418;-78
2022/03/03 14:47:56;;;;;;;10.73;8.63;;;;;;;;;;5166063;27;20431;-77
2022/03/03 14:50:23;;;;;;;10.73;8.60;;;;;;;;;;5087162;28;20436;-75
2022/03/03 14:52:49;;;;;;;9.73;8.73;;;;;;;;;;4958225;28;20815;-76
2022/03/03 14:55:15;;;;;;;10.00;8.97;;;;;;;;;;4910883;28;20434;-76
2022/03/03 14:57:41;;;;;;;9.00;8.20;;;;;;;;;;4918301;28;20946;-78
2022/03/03 15:00:08;;;;;;;10.90;9.13;;;;;;;;;;4906785;28;20485;-79
2022/03/03 15:05:15;;;;;;;9.70;8.27;;;;;;;;;;5191936;27;20489;-76
2022/03/03 15:07:42;;;;;;;8.67;7.60;;;;;;;;;;5147845;27;20440;-77
2022/03/03 15:10:08;;;;;;;9.80;8.00;;;;;;;;;;5175442;27;20434;-76
2022/03/03 15:12:34;;;;;;;9.83;8.60;;;;;;;;;;5168864;27;20428;-78
2022/03/03 15:15:00;;;;;;;9.87;8.63;;;;;;;;;;5168033;27;20437;-79
2022/03/03 15:17:26;;;;;;;9.53;8.60;;;;;;;;;;5105659;27;20457;-78
2022/03/03 15:19:52;;;;;;;9.30;8.40;;;;;;;;;;5076082;28;20430;-77
2022/03/03 15:22:18;;;;;;;13.63;9.53;;;;;;;;;;5099645;27;20472;-75
2022/03/03 15:24:44;;;;;;;9.73;8.53;;;;;;;;;;4941357;28;20516;-78
2022/03/03 15:29:42;;;;;;;12.10;8.57;;;;;;;;;;5193047;27;20284;-77
2022/03/03 15:32:09;;;;;;;8.83;7.93;;;;;;;;;;5187627;27;20425;-78
2022/03/03 15:37:20;;;;;;;9.27;7.77;;;;;;;;;;5144856;27;20959;-75
2022/03/03 15:39:46;;;;;;;9.70;7.77;;;;;;;;;;5108924;28;20838;-76
2022/03/03 15:42:12;;;;;;;9.90;8.87;;;;;;;;;;5037190;28;20507;-78
2022/03/03 15:44:39;;;;;;;11.77;8.73;;;;;;;;;;4983057;28;20876;-75
2022/03/03 15:47:05;;;;;;;9.67;8.67;;;;;;;;;;4964476;28;20534;-76
2022/03/03 15:49:32;;;;;;;8.80;7.90;;;;;;;;;;4805565;29;20865;-77
2022/03/03 15:53:39;;;;;;;9.33;8.43;;;;;;;;;;5193149;27;20484;-77